Ville De Bordeaux — FZCE — position and weather

sailwx.info

Track history (hours):
 
Tides and Currents Weather Stations Pressure Air Temp Water Temp Dewpoint Dewpoint Depression Visibility Wind Speed Wind Dir Waves Ship Positions

Ville De Bordeaux

Last reported at 2016-Jun-28 13:17 UTC. Time now 2016-Jun-28 17:05 UTC.
Position N 35°59' W 005°14'.

Length 150 m; beam 24 m.

Type: Ship. MMSI: 228084000.

Date/timePositionNaut miles runAvg speedWind from/ knotsBaromVisibWave heightAir tempDewpointWater temp
2016-Jun-28 13:17N 35°59' W 005°14'80 2.4
2016-Jun-27 03:33N 36°02' W 006°53'1717.0
2016-Jun-27 02:31N 36°06' W 007°14'12116.6
2016-Jun-26 19:15N 36°52' W 009°33'1714.4
2016-Jun-26 18:06N 37°08' W 009°40'917.1
2016-Jun-26 17:33N 37°16' W 009°43'1917.1
2016-Jun-26 16:28N 37°34' W 009°49'2317.0
2016-Jun-26 15:06N 37°57' W 009°55'917.0
2016-Jun-26 14:33N 38°06' W 009°58'2317.8
2016-Jun-26 13:16N 38°28' W 010°04'1617.7
2016-Jun-26 12:21N 38°45' W 010°07'59214.5
2016-Jun-24 19:32N 46°59' W 002°43'1414.2
2016-Jun-24 18:32N 47°05' W 002°25'1414.1
2016-Jun-24 17:32N 47°16' W 002°11'2 1.3
2016-Jun-24 16:17N 47°17' W 002°10'0 0.0
2016-Jun-24 14:31N 47°17' W 002°10'0 0.0
2016-Jun-24 13:32N 47°17' W 002°10'0 0.0
2016-Jun-24 12:32N 47°17' W 002°10'0 0.0
2016-Jun-24 11:29N 47°17' W 002°10'0 0.0
2016-Jun-24 10:32N 47°17' W 002°10'0 0.0
2016-Jun-24 09:32N 47°17' W 002°10'0 0.0
2016-Jun-24 08:31N 47°17' W 002°10'0 0.0
2016-Jun-24 07:33N 47°17' W 002°10'29 9.7
2016-Jun-24 04:33N 46°58' W 002°42'1514.6
2016-Jun-24 03:33N 46°49' W 002°59'1514.9
2016-Jun-24 02:31N 46°40' W 003°17'1415.1
2016-Jun-24 01:33N 46°32' W 003°34'1615.5
2016-Jun-24 00:33N 46°23' W 003°53'50510.7
2016-Jun-22 01:13N 39°11' W 009°51'24 9.1
2016-Jun-21 22:33N 38°47' W 009°51'9 8.9
2016-Jun-21 21:33N 38°38' W 009°50'9 8.7
2016-Jun-21 20:33N 38°30' W 009°47'9 8.6
2016-Jun-21 19:33N 38°21' W 009°45'8 8.3
2016-Jun-21 18:33N 38°13' W 009°42'8 8.3
2016-Jun-21 17:33N 38°05' W 009°40'9 8.5
2016-Jun-21 16:32N 37°57' W 009°37'8 8.6
2016-Jun-21 15:33N 37°49' W 009°35'9 8.8
2016-Jun-21 14:33N 37°40' W 009°33'102 7.8
2016-Jun-21 01:33N 36°39' W 007°51'118 4.2
2016-Jun-19 21:33N 35°58' W 005°34'5 0.7
2016-Jun-19 13:33N 35°60' W 005°27'  
Track history (hours):
 
Tides and Currents Weather Stations Pressure Air Temp Water Temp Dewpoint Dewpoint Depression Visibility Wind Speed Wind Dir Waves Ship Positions

Ville De Bordeaux

Last reported at 2016-Jun-28 13:17 UTC. Time now 2016-Jun-28 17:05 UTC.
Position N 35°59' W 005°14'.

Length 150 m; beam 24 m.

Type: Ship. MMSI: 228084000.

Date/timePositionNaut miles runAvg speedWind from/ knotsBaromVisibWave heightAir tempDewpointWater temp
2016-Jun-28 13:17N 35°59' W 005°14'80 2.4
2016-Jun-27 03:33N 36°02' W 006°53'1717.0
2016-Jun-27 02:31N 36°06' W 007°14'12116.6
2016-Jun-26 19:15N 36°52' W 009°33'1714.4
2016-Jun-26 18:06N 37°08' W 009°40'917.1
2016-Jun-26 17:33N 37°16' W 009°43'1917.1
2016-Jun-26 16:28N 37°34' W 009°49'2317.0
2016-Jun-26 15:06N 37°57' W 009°55'917.0
2016-Jun-26 14:33N 38°06' W 009°58'2317.8
2016-Jun-26 13:16N 38°28' W 010°04'1617.7
2016-Jun-26 12:21N 38°45' W 010°07'59214.5
2016-Jun-24 19:32N 46°59' W 002°43'1414.2
2016-Jun-24 18:32N 47°05' W 002°25'1414.1
2016-Jun-24 17:32N 47°16' W 002°11'2 1.3
2016-Jun-24 16:17N 47°17' W 002°10'0 0.0
2016-Jun-24 14:31N 47°17' W 002°10'0 0.0
2016-Jun-24 13:32N 47°17' W 002°10'0 0.0
2016-Jun-24 12:32N 47°17' W 002°10'0 0.0
2016-Jun-24 11:29N 47°17' W 002°10'0 0.0
2016-Jun-24 10:32N 47°17' W 002°10'0 0.0
2016-Jun-24 09:32N 47°17' W 002°10'0 0.0
2016-Jun-24 08:31N 47°17' W 002°10'0 0.0
2016-Jun-24 07:33N 47°17' W 002°10'29 9.7
2016-Jun-24 04:33N 46°58' W 002°42'1514.6
2016-Jun-24 03:33N 46°49' W 002°59'1514.9
2016-Jun-24 02:31N 46°40' W 003°17'1415.1
2016-Jun-24 01:33N 46°32' W 003°34'1615.5
2016-Jun-24 00:33N 46°23' W 003°53'50510.7
2016-Jun-22 01:13N 39°11' W 009°51'24 9.1
2016-Jun-21 22:33N 38°47' W 009°51'9 8.9
2016-Jun-21 21:33N 38°38' W 009°50'9 8.7
2016-Jun-21 20:33N 38°30' W 009°47'9 8.6
2016-Jun-21 19:33N 38°21' W 009°45'8 8.3
2016-Jun-21 18:33N 38°13' W 009°42'8 8.3
2016-Jun-21 17:33N 38°05' W 009°40'9 8.5
2016-Jun-21 16:32N 37°57' W 009°37'8 8.6
2016-Jun-21 15:33N 37°49' W 009°35'9 8.8
2016-Jun-21 14:33N 37°40' W 009°33'102 7.8
2016-Jun-21 01:33N 36°39' W 007°51'118 4.2
2016-Jun-19 21:33N 35°58' W 005°34'5 0.7
2016-Jun-19 13:33N 35°60' W 005°27'  

Dump ship's entire track history